SARE/RES METAR and TAF weather

Enter ICAO airport designator
Station Type Date Time Source
SARE METAR 2019/12/16 03:00 UTC NOAA

SARE 160300Z 27003KT CAVOK 19/19 Q1010


Station Type Date Time Source
SARE Decoded METAR 2019/12/16 03:00 UTC NOAA

Resistencia Aero., Argentina (SARE) 27-27S 059-03W 52M
Dec 15, 2019 - 10:00 PM EST / 2019.12.16 0300 UTC
Wind: from the W (270 degrees) at 3 MPH (3 KT):0
Visibility: greater than 7 mile(s):0
Temperature: 66 F (19 C)
Dew Point: 66 F (19 C)
Relative Humidity: 100%
Pressure (altimeter): 29.83 in. Hg (1010 hPa)
ob: SARE 160300Z 27003KT CAVOK 19/19 Q1010
cycle: 3

Station Type Date Time Source
SARE TAF 2019/12/16 00:00 UTC NOAA

TAF SARE 152300Z 1600/1624 20005KT 9999 FEW016 SCT034 BKN140 TX29/1618Z TN17/1609Z PROB30 1601/1604 8000 -RADZ BKN006 OVC040
BECMG 1618/1620 18010KT CAVOK

Example: see airport list